Ethridge, Tennessee
Current Conditions -  °F | °C
As of 12:35 PM on Thursday 23 Oct 2014 (Local Time) from KMRC Reporting Station
Clear Clear  
Wind Chill: 17°   Ceiling: Unl
Heat Index: 17°   Visibility: 10mi
Dew Point:   Wind: 3mph
Humidity: 55%   Direction: 50°NE
Pressure: 30.16"   Gusts: NA
Location:  35.32°N, 87.3°W
Report Text: KMRC 231735Z AUTO 05003KT 10SM CLR 17/08 A3016 RMK
Loading
Personal Weather Stations






























Interactive Weather Map
Tropical Storm Tracking
New forecast layout! Learn more

10-Day Weather Forecast

Advertisements
Track Severe Weather on mobile